Time;durP1;ratioP1;P1;durP2;ratioP2;P2;SDS_P1;SDS_P2;PMS_P1;PMS_P2;Temp;Humidity;BMP_temperature;BMP_pressure;BME280_temperature;BME280_humidity;BME280_pressure;Samples;Min_cycle;Max_cycle;Signal;HPM_P1;HPM_P2
2021/09/29 00:01:57;;;;;;;29.42;24.35;;;;;;;;;;5079750;28;20028;-83
2021/09/29 00:04:23;;;;;;;34.30;25.35;;;;;;;;;;5078815;28;20028;-83
2021/09/29 00:06:49;;;;;;;29.02;22.27;;;;;;;;;;5078841;28;20036;-83
2021/09/29 00:09:15;;;;;;;30.23;21.70;;;;;;;;;;5078689;28;20017;-83
2021/09/29 00:11:41;;;;;;;28.20;21.67;;;;;;;;;;5078568;28;20027;-83
2021/09/29 00:14:07;;;;;;;39.08;22.08;;;;;;;;;;5078834;28;20332;-84
2021/09/29 00:16:33;;;;;;;24.33;20.38;;;;;;;;;;5079816;28;20027;-83
2021/09/29 00:18:59;;;;;;;26.83;21.15;;;;;;;;;;5079462;28;20024;-83
2021/09/29 00:21:25;;;;;;;26.80;22.08;;;;;;;;;;5079629;28;20398;-83
2021/09/29 00:23:52;;;;;;;26.42;21.88;;;;;;;;;;5079636;28;20028;-83
2021/09/29 00:26:18;;;;;;;25.45;21.40;;;;;;;;;;5079578;28;20020;-83
2021/09/29 00:28:44;;;;;;;26.33;21.33;;;;;;;;;;5078232;28;20057;-84
2021/09/29 00:34:07;;;;;;;23.23;20.88;;;;;;;;;;5079828;28;20067;-85
2021/09/29 00:36:38;;;;;;;23.88;21.27;;;;;;;;;;5078583;28;20028;-84
2021/09/29 00:39:05;;;;;;;24.20;21.55;;;;;;;;;;5078026;28;20047;-84
2021/09/29 00:41:31;;;;;;;25.48;22.05;;;;;;;;;;5079433;28;20029;-84
2021/09/29 00:43:57;;;;;;;29.70;21.88;;;;;;;;;;5079247;28;20032;-84
2021/09/29 00:46:23;;;;;;;36.35;25.50;;;;;;;;;;5079393;28;20055;-84
2021/09/29 00:48:49;;;;;;;27.15;20.08;;;;;;;;;;5079506;28;20038;-84
2021/09/29 00:51:15;;;;;;;25.17;19.85;;;;;;;;;;5078165;28;20070;-83
2021/09/29 00:53:42;;;;;;;22.65;19.83;;;;;;;;;;5078969;28;20017;-83
2021/09/29 00:56:09;;;;;;;20.23;17.85;;;;;;;;;;5079122;28;20100;-83
2021/09/29 00:58:35;;;;;;;19.52;17.35;;;;;;;;;;5079019;28;20052;-83
2021/09/29 01:01:01;;;;;;;19.88;17.83;;;;;;;;;;5078902;28;20032;-84
2021/09/29 01:03:27;;;;;;;19.52;17.00;;;;;;;;;;5077870;28;20032;-83
2021/09/29 01:05:58;;;;;;;19.63;17.60;;;;;;;;;;5077820;28;20024;-84
2021/09/29 01:08:30;;;;;;;18.27;16.42;;;;;;;;;;5078927;28;20033;-84
2021/09/29 01:11:14;;;;;;;18.70;16.90;;;;;;;;;;5078768;28;20025;-84
2021/09/29 01:13:44;;;;;;;19.48;17.58;;;;;;;;;;5078758;28;20028;-84
2021/09/29 01:16:11;;;;;;;17.95;16.15;;;;;;;;;;5078918;28;20024;-83
2021/09/29 01:18:41;;;;;;;21.35;17.58;;;;;;;;;;5078845;28;20021;-84
2021/09/29 01:21:12;;;;;;;20.00;17.88;;;;;;;;;;5077576;28;20024;-84
2021/09/29 01:23:49;;;;;;;26.60;18.60;;;;;;;;;;5078600;28;20032;-84
2021/09/29 01:26:16;;;;;;;31.20;20.17;;;;;;;;;;5078661;28;20112;-83
2021/09/29 01:28:46;;;;;;;30.27;21.20;;;;;;;;;;5078205;28;20040;-83
2021/09/29 01:31:13;;;;;;;23.08;20.27;;;;;;;;;;5077329;28;20032;-83
2021/09/29 01:33:39;;;;;;;21.92;19.63;;;;;;;;;;5076923;28;20068;-83
2021/09/29 01:36:06;;;;;;;21.48;19.27;;;;;;;;;;5077222;28;20017;-83
2021/09/29 01:38:32;;;;;;;21.30;19.08;;;;;;;;;;5078037;28;20041;-82
2021/09/29 01:40:58;;;;;;;20.98;19.00;;;;;;;;;;5078055;28;20321;-82
2021/09/29 01:43:24;;;;;;;21.27;19.08;;;;;;;;;;5076646;28;20116;-82
2021/09/29 01:45:50;;;;;;;23.15;20.58;;;;;;;;;;5076813;28;20082;-83
2021/09/29 01:48:17;;;;;;;26.55;21.35;;;;;;;;;;5076775;28;20021;-83
2021/09/29 01:50:45;;;;;;;25.48;22.30;;;;;;;;;;5077001;28;20102;-83
2021/09/29 01:53:11;;;;;;;28.83;22.90;;;;;;;;;;5076878;28;20021;-83
2021/09/29 01:55:39;;;;;;;27.85;22.88;;;;;;;;;;5077770;28;20493;-83
2021/09/29 01:58:05;;;;;;;28.98;24.10;;;;;;;;;;5077885;28;20028;-83
2021/09/29 02:00:32;;;;;;;33.28;24.40;;;;;;;;;;5077852;28;20445;-83
2021/09/29 02:02:59;;;;;;;27.83;23.23;;;;;;;;;;5077912;28;20086;-83
2021/09/29 02:05:30;;;;;;;25.52;22.88;;;;;;;;;;5077832;28;20035;-84
2021/09/29 02:07:56;;;;;;;35.95;24.85;;;;;;;;;;5077594;28;20025;-84
2021/09/29 02:10:22;;;;;;;38.75;26.38;;;;;;;;;;5076645;28;20119;-83
2021/09/29 02:13:07;;;;;;;30.20;24.52;;;;;;;;;;5076565;28;20024;-83
2021/09/29 02:15:33;;;;;;;25.40;21.98;;;;;;;;;;5077476;28;20436;-83
2021/09/29 02:17:59;;;;;;;27.35;24.55;;;;;;;;;;5077739;28;20359;-84
2021/09/29 02:20:25;;;;;;;26.60;23.92;;;;;;;;;;5076727;28;20083;-84
2021/09/29 02:22:51;;;;;;;26.98;24.17;;;;;;;;;;5077518;28;20097;-84
2021/09/29 02:25:17;;;;;;;26.88;24.17;;;;;;;;;;5077188;28;20033;-84
2021/09/29 02:27:43;;;;;;;30.30;25.67;;;;;;;;;;5076442;28;20029;-85
2021/09/29 02:30:10;;;;;;;36.63;25.40;;;;;;;;;;5077327;28;20056;-85
2021/09/29 02:32:37;;;;;;;32.47;24.58;;;;;;;;;;5076488;28;20025;-83
2021/09/29 02:35:04;;;;;;;25.13;22.52;;;;;;;;;;5076475;28;20020;-83
2021/09/29 02:37:31;;;;;;;24.52;22.13;;;;;;;;;;5076936;28;20029;-83
2021/09/29 02:39:57;;;;;;;23.73;21.30;;;;;;;;;;5076358;28;20021;-83
2021/09/29 02:42:23;;;;;;;20.75;18.75;;;;;;;;;;5077437;28;20077;-84
2021/09/29 02:44:49;;;;;;;21.60;19.38;;;;;;;;;;5077593;28;20024;-84
2021/09/29 02:47:15;;;;;;;24.25;20.35;;;;;;;;;;5077352;28;20017;-84
2021/09/29 02:49:41;;;;;;;21.45;19.23;;;;;;;;;;5076275;28;20424;-84
2021/09/29 02:52:07;;;;;;;22.40;20.00;;;;;;;;;;5077084;28;20028;-83
2021/09/29 02:54:33;;;;;;;21.83;19.63;;;;;;;;;;5077394;28;20075;-83
2021/09/29 02:56:59;;;;;;;22.63;19.83;;;;;;;;;;5077149;28;20031;-84
2021/09/29 02:59:25;;;;;;;22.55;20.08;;;;;;;;;;5075895;28;20063;-82
2021/09/29 03:01:51;;;;;;;22.60;20.23;;;;;;;;;;5078226;28;20028;-83
2021/09/29 03:04:17;;;;;;;23.23;20.63;;;;;;;;;;5081304;28;20025;-83
2021/09/29 03:06:43;;;;;;;23.33;20.77;;;;;;;;;;5081134;28;20031;-83
2021/09/29 03:09:09;;;;;;;23.02;20.73;;;;;;;;;;5081254;28;20109;-84
2021/09/29 03:11:35;;;;;;;24.63;22.02;;;;;;;;;;5081124;28;20024;-84
2021/09/29 03:14:02;;;;;;;23.33;20.95;;;;;;;;;;5079879;28;20025;-83
2021/09/29 03:16:28;;;;;;;24.60;22.00;;;;;;;;;;5080935;28;20047;-83
2021/09/29 03:18:55;;;;;;;23.52;21.02;;;;;;;;;;5080797;28;20027;-83
2021/09/29 03:21:21;;;;;;;23.67;21.02;;;;;;;;;;5080769;28;20441;-82
2021/09/29 03:23:47;;;;;;;23.80;21.30;;;;;;;;;;5080674;28;20035;-83
2021/09/29 03:26:13;;;;;;;22.48;20.17;;;;;;;;;;5079586;28;20362;-83
2021/09/29 03:28:39;;;;;;;21.42;18.77;;;;;;;;;;5080307;28;20047;-82
2021/09/29 03:31:06;;;;;;;21.85;19.65;;;;;;;;;;5079317;28;20039;-82
2021/09/29 03:33:32;;;;;;;21.27;19.13;;;;;;;;;;5079216;28;20040;-82
2021/09/29 03:35:58;;;;;;;21.40;19.13;;;;;;;;;;5080416;28;20023;-83
2021/09/29 03:38:24;;;;;;;24.92;22.33;;;;;;;;;;5080203;28;20131;-83
2021/09/29 03:40:50;;;;;;;23.80;21.25;;;;;;;;;;5079546;28;20040;-83
2021/09/29 03:43:19;;;;;;;23.35;21.05;;;;;;;;;;5080464;28;20029;-84
2021/09/29 03:45:45;;;;;;;26.00;22.85;;;;;;;;;;5080410;28;20074;-84
2021/09/29 03:48:11;;;;;;;24.85;22.35;;;;;;;;;;5080305;28;20021;-84
2021/09/29 03:50:39;;;;;;;25.58;21.98;;;;;;;;;;5080436;28;20021;-84
2021/09/29 03:53:05;;;;;;;25.10;22.40;;;;;;;;;;5079266;28;20032;-84
2021/09/29 03:55:31;;;;;;;25.75;22.95;;;;;;;;;;5080417;28;20154;-84
2021/09/29 03:57:57;;;;;;;26.80;24.00;;;;;;;;;;5080378;28;20032;-84
2021/09/29 04:00:23;;;;;;;26.95;23.77;;;;;;;;;;5080202;28;20052;-83
2021/09/29 04:02:49;;;;;;;28.02;25.02;;;;;;;;;;5080065;28;20028;-84
2021/09/29 04:05:15;;;;;;;31.02;25.83;;;;;;;;;;5079985;28;20474;-84
2021/09/29 04:07:41;;;;;;;28.65;24.30;;;;;;;;;;5079947;28;20039;-83
2021/09/29 04:10:09;;;;;;;28.17;25.08;;;;;;;;;;5079837;28;20334;-83
2021/09/29 04:12:35;;;;;;;31.65;26.05;;;;;;;;;;5080051;28;20414;-85
2021/09/29 04:15:01;;;;;;;31.17;26.15;;;;;;;;;;5078972;28;20115;-82
2021/09/29 04:17:27;;;;;;;32.28;25.80;;;;;;;;;;5079756;28;20410;-83
2021/09/29 04:19:54;;;;;;;32.33;26.73;;;;;;;;;;5079742;28;20062;-83
2021/09/29 04:22:20;;;;;;;34.97;28.42;;;;;;;;;;5079936;28;20103;-84
2021/09/29 04:24:47;;;;;;;33.97;27.35;;;;;;;;;;5079826;28;20037;-84
2021/09/29 04:27:14;;;;;;;34.15;27.00;;;;;;;;;;5079377;28;20107;-83
2021/09/29 04:29:40;;;;;;;34.15;26.77;;;;;;;;;;5079502;28;20071;-84
2021/09/29 04:32:07;;;;;;;36.33;28.98;;;;;;;;;;5079481;28;20016;-83
2021/09/29 04:34:33;;;;;;;34.92;28.17;;;;;;;;;;5078394;28;20052;-83
2021/09/29 04:36:59;;;;;;;35.00;28.55;;;;;;;;;;5079217;28;20413;-83
2021/09/29 04:39:25;;;;;;;38.50;28.98;;;;;;;;;;5079220;28;20024;-83
2021/09/29 04:41:51;;;;;;;38.55;30.90;;;;;;;;;;5079285;28;20031;-83
2021/09/29 04:44:17;;;;;;;38.63;29.75;;;;;;;;;;5079119;28;20104;-83
2021/09/29 04:46:43;;;;;;;36.17;29.70;;;;;;;;;;5079182;28;20422;-83
2021/09/29 04:49:09;;;;;;;52.55;32.40;;;;;;;;;;5078232;28;20362;-83
2021/09/29 04:51:35;;;;;;;45.95;32.80;;;;;;;;;;5079036;28;20035;-83
2021/09/29 04:54:01;;;;;;;44.72;34.03;;;;;;;;;;5078863;28;20062;-83
2021/09/29 04:56:29;;;;;;;49.08;34.10;;;;;;;;;;5079044;28;20033;-82
2021/09/29 04:58:55;;;;;;;45.70;32.63;;;;;;;;;;5078986;28;20056;-83
2021/09/29 05:01:23;;;;;;;46.80;33.15;;;;;;;;;;5078261;28;20033;-83
2021/09/29 05:03:49;;;;;;;47.05;34.13;;;;;;;;;;5077656;28;20027;-83
2021/09/29 05:06:15;;;;;;;55.78;33.90;;;;;;;;;;5078708;28;20025;-83
2021/09/29 05:08:43;;;;;;;44.88;33.63;;;;;;;;;;5078546;28;20056;-82
2021/09/29 05:11:19;;;;;;;40.47;32.17;;;;;;;;;;5078458;28;20025;-82
2021/09/29 05:13:46;;;;;;;42.65;33.33;;;;;;;;;;5078676;28;20020;-83
2021/09/29 05:16:12;;;;;;;48.95;34.13;;;;;;;;;;5078566;28;20391;-83
2021/09/29 05:18:39;;;;;;;44.33;33.38;;;;;;;;;;5078234;28;20028;-82
2021/09/29 05:21:05;;;;;;;47.67;34.33;;;;;;;;;;5077749;28;20091;-82
2021/09/29 05:23:32;;;;;;;49.22;35.50;;;;;;;;;;5078134;28;20028;-84
2021/09/29 05:25:58;;;;;;;48.88;36.08;;;;;;;;;;5077966;28;20024;-82
2021/09/29 05:28:28;;;;;;;56.95;34.78;;;;;;;;;;5077860;28;20040;-81
2021/09/29 05:30:55;;;;;;;54.83;35.88;;;;;;;;;;5078136;28;20029;-81
2021/09/29 05:33:21;;;;;;;50.83;36.17;;;;;;;;;;5078161;28;20111;-81
2021/09/29 05:35:47;;;;;;;62.25;43.40;;;;;;;;;;5077838;28;20099;-81
2021/09/29 05:38:13;;;;;;;61.40;41.08;;;;;;;;;;5076817;28;20018;-81
2021/09/29 05:40:39;;;;;;;62.63;44.88;;;;;;;;;;5077980;28;20021;-81
2021/09/29 05:43:05;;;;;;;61.55;44.20;;;;;;;;;;5077672;28;20028;-81
2021/09/29 05:45:31;;;;;;;71.00;46.17;;;;;;;;;;5076962;28;20040;-81
2021/09/29 05:47:57;;;;;;;66.35;43.63;;;;;;;;;;5076497;28;20048;-80
2021/09/29 05:50:23;;;;;;;63.85;40.08;;;;;;;;;;5076174;28;20165;-81
2021/09/29 05:52:49;;;;;;;60.42;38.58;;;;;;;;;;5077935;28;20349;-81
2021/09/29 05:55:15;;;;;;;109.78;77.47;;;;;;;;;;5077805;28;20024;-82
2021/09/29 05:57:41;;;;;;;46.38;29.63;;;;;;;;;;5077707;28;20052;-82
2021/09/29 06:00:08;;;;;;;39.80;23.63;;;;;;;;;;5077641;28;20055;-82
2021/09/29 06:02:34;;;;;;;41.38;25.95;;;;;;;;;;5076498;28;20033;-82
2021/09/29 06:05:00;;;;;;;30.67;20.65;;;;;;;;;;5077608;28;20025;-81
2021/09/29 06:07:26;;;;;;;32.72;23.08;;;;;;;;;;5077630;28;20028;-82
2021/09/29 06:09:52;;;;;;;26.90;18.63;;;;;;;;;;5076545;28;20421;-81
2021/09/29 06:12:18;;;;;;;34.22;23.00;;;;;;;;;;5077496;28;20454;-82
2021/09/29 06:14:50;;;;;;;40.97;27.48;;;;;;;;;;5076290;28;20038;-81
2021/09/29 06:17:36;;;;;;;26.98;18.98;;;;;;;;;;5077278;28;20470;-82
2021/09/29 06:20:04;;;;;;;23.15;15.38;;;;;;;;;;5077293;28;20048;-82
2021/09/29 06:22:30;;;;;;;19.58;14.75;;;;;;;;;;5076284;28;20291;-82
2021/09/29 06:24:56;;;;;;;22.13;16.25;;;;;;;;;;5076283;28;20025;-81
2021/09/29 06:27:22;;;;;;;29.48;18.55;;;;;;;;;;5076098;28;20029;-82
2021/09/29 06:29:48;;;;;;;20.05;15.05;;;;;;;;;;5076940;28;20048;-82
2021/09/29 06:32:14;;;;;;;17.58;14.10;;;;;;;;;;5075950;28;20402;-82
2021/09/29 06:34:40;;;;;;;25.65;15.38;;;;;;;;;;5076128;28;20410;-82
2021/09/29 06:37:07;;;;;;;14.73;11.45;;;;;;;;;;5076905;28;20024;-82
2021/09/29 06:39:33;;;;;;;19.48;14.18;;;;;;;;;;5076478;28;20070;-82
2021/09/29 06:41:59;;;;;;;19.02;14.90;;;;;;;;;;5077306;28;20025;-82
2021/09/29 06:44:26;;;;;;;25.90;16.15;;;;;;;;;;5076958;28;20055;-82
2021/09/29 06:46:52;;;;;;;16.50;10.10;;;;;;;;;;5077397;28;20028;-82
2021/09/29 06:49:18;;;;;;;20.45;14.02;;;;;;;;;;5077117;28;20025;-82
2021/09/29 06:51:44;;;;;;;22.17;15.13;;;;;;;;;;5077317;28;20111;-82
2021/09/29 06:54:10;;;;;;;15.90;10.75;;;;;;;;;;5076860;28;20032;-82
2021/09/29 06:56:37;;;;;;;19.08;13.68;;;;;;;;;;5077158;28;20021;-82
2021/09/29 06:59:03;;;;;;;20.05;11.40;;;;;;;;;;5076768;28;20044;-82
2021/09/29 07:01:29;;;;;;;13.32;10.05;;;;;;;;;;5077022;28;20421;-82
2021/09/29 07:03:55;;;;;;;17.65;10.05;;;;;;;;;;5076006;28;20033;-82
2021/09/29 07:06:21;;;;;;;17.33;11.35;;;;;;;;;;5076776;28;20024;-81
2021/09/29 07:08:47;;;;;;;17.15;10.88;;;;;;;;;;5075825;28;20024;-81
2021/09/29 07:11:16;;;;;;;14.73;11.13;;;;;;;;;;5076819;28;20025;-82
2021/09/29 07:13:42;;;;;;;16.55;9.85;;;;;;;;;;5076691;28;20025;-82
2021/09/29 07:16:09;;;;;;;15.02;10.70;;;;;;;;;;5076825;28;20024;-82
2021/09/29 07:18:38;;;;;;;14.00;10.55;;;;;;;;;;5076634;28;20086;-82
2021/09/29 07:21:04;;;;;;;16.58;12.93;;;;;;;;;;5076829;28;20031;-81
2021/09/29 07:23:30;;;;;;;15.18;12.43;;;;;;;;;;5076690;28;20071;-82
2021/09/29 07:25:57;;;;;;;26.65;12.60;;;;;;;;;;5076848;28;20028;-82
2021/09/29 07:28:23;;;;;;;20.52;13.85;;;;;;;;;;5076259;28;20358;-82
2021/09/29 07:30:49;;;;;;;15.50;11.85;;;;;;;;;;5076554;28;20128;-82
2021/09/29 07:33:15;;;;;;;20.23;11.23;;;;;;;;;;5076421;28;20084;-81
2021/09/29 07:35:43;;;;;;;14.95;11.27;;;;;;;;;;5076528;28;20020;-81
2021/09/29 07:38:09;;;;;;;21.45;12.70;;;;;;;;;;5076594;28;20410;-81
2021/09/29 07:40:36;;;;;;;32.53;19.35;;;;;;;;;;5076827;28;20025;-82
2021/09/29 07:43:02;;;;;;;21.23;14.02;;;;;;;;;;5076369;28;20360;-82
2021/09/29 07:45:28;;;;;;;24.35;14.77;;;;;;;;;;5076643;28;20104;-82
2021/09/29 07:47:54;;;;;;;21.55;12.55;;;;;;;;;;5076459;28;20028;-82
2021/09/29 07:50:21;;;;;;;15.82;13.10;;;;;;;;;;5078657;28;20021;-82
2021/09/29 07:52:48;;;;;;;16.25;12.38;;;;;;;;;;5079932;28;20029;-82
2021/09/29 07:55:14;;;;;;;18.50;12.35;;;;;;;;;;5079914;28;20025;-81
2021/09/29 07:57:41;;;;;;;17.17;12.20;;;;;;;;;;5078916;28;20029;-82
2021/09/29 08:00:08;;;;;;;16.75;11.80;;;;;;;;;;5080009;28;20028;-82
2021/09/29 08:02:34;;;;;;;13.20;10.18;;;;;;;;;;5080033;28;20048;-82
2021/09/29 08:05:02;;;;;;;14.90;9.95;;;;;;;;;;5079964;28;20025;-81
2021/09/29 08:07:29;;;;;;;28.15;11.40;;;;;;;;;;5079834;28;20398;-82
2021/09/29 08:09:55;;;;;;;13.13;10.10;;;;;;;;;;5079891;28;20029;-81
2021/09/29 08:12:21;;;;;;;14.95;9.13;;;;;;;;;;5079865;28;20020;-82
2021/09/29 08:14:48;;;;;;;14.77;9.57;;;;;;;;;;5079775;28;20020;-82
2021/09/29 08:17:14;;;;;;;17.95;10.32;;;;;;;;;;5079959;28;20086;-82
2021/09/29 08:19:40;;;;;;;14.43;8.20;;;;;;;;;;5079594;28;20027;-82
2021/09/29 08:22:08;;;;;;;15.77;9.10;;;;;;;;;;5079841;28;20358;-82
2021/09/29 08:24:44;;;;;;;13.55;9.75;;;;;;;;;;5078663;28;20028;-82
2021/09/29 08:27:18;;;;;;;12.93;8.43;;;;;;;;;;5078417;28;20037;-82
2021/09/29 08:30:02;;;;;;;11.50;8.63;;;;;;;;;;5079039;28;20053;-82
2021/09/29 08:32:42;;;;;;;12.20;7.95;;;;;;;;;;5078335;28;20032;-82
2021/09/29 08:35:14;;;;;;;9.50;7.50;;;;;;;;;;5079496;28;20050;-82
2021/09/29 08:37:50;;;;;;;13.18;7.38;;;;;;;;;;5079454;28;20021;-82
2021/09/29 08:40:23;;;;;;;13.73;7.55;;;;;;;;;;5078325;28;20444;-82
2021/09/29 08:43:33;;;;;;;15.85;10.40;;;;;;;;;;5078334;28;20073;-82
2021/09/29 08:51:21;;;;;;;19.08;8.98;;;;;;;;;;5079201;28;20029;-82
2021/09/29 08:56:20;;;;;;;21.80;9.77;;;;;;;;;;5079107;28;20166;-82
2021/09/29 09:15:54;;;;;;;27.95;10.60;;;;;;;;;;5078461;28;20089;-82
2021/09/29 09:18:21;;;;;;;12.27;7.18;;;;;;;;;;5078339;28;20024;-83
2021/09/29 09:21:00;;;;;;;20.13;6.63;;;;;;;;;;5078528;28;20033;-82
2021/09/29 09:23:40;;;;;;;15.55;7.78;;;;;;;;;;5077196;28;20430;-82
2021/09/29 09:26:17;;;;;;;11.57;7.00;;;;;;;;;;5078234;28;20034;-81
2021/09/29 09:28:43;;;;;;;15.85;6.88;;;;;;;;;;5078081;28;20028;-81
2021/09/29 09:31:13;;;;;;;9.75;6.38;;;;;;;;;;5077950;28;20036;-82
2021/09/29 09:34:06;;;;;;;10.93;5.90;;;;;;;;;;5076918;28;20031;-81
2021/09/29 09:36:40;;;;;;;13.05;5.90;;;;;;;;;;5077662;28;20049;-81
2021/09/29 09:39:12;;;;;;;11.98;5.70;;;;;;;;;;5078007;28;20030;-81
2021/09/29 09:41:37;;;;;;;;;;;;;;;;;;5077407;28;20024;-82
2021/09/29 09:44:05;;;;;;;11.88;5.80;;;;;;;;;;5076736;28;19904;-81
2021/09/29 09:46:31;;;;;;;8.80;6.03;;;;;;;;;;5076733;28;20036;-82
2021/09/29 09:48:58;;;;;;;9.77;5.97;;;;;;;;;;5076640;28;20040;-81
2021/09/29 09:51:25;;;;;;;9.20;6.28;;;;;;;;;;5076724;28;20373;-81
2021/09/29 09:53:54;;;;;;;11.15;5.88;;;;;;;;;;5076444;28;20048;-81
2021/09/29 09:56:24;;;;;;;8.68;5.88;;;;;;;;;;5077511;28;20149;-81
2021/09/29 09:58:52;;;;;;;12.85;6.60;;;;;;;;;;5077852;28;20042;-82
2021/09/29 10:01:19;;;;;;;10.45;6.72;;;;;;;;;;5077787;28;20028;-81
2021/09/29 10:03:46;;;;;;;12.02;7.20;;;;;;;;;;5077606;28;20410;-81
2021/09/29 10:06:13;;;;;;;9.35;5.78;;;;;;;;;;5077633;28;20078;-82
2021/09/29 10:08:43;;;;;;;9.43;6.43;;;;;;;;;;5076786;28;20059;-82
2021/09/29 10:11:16;;;;;;;13.13;6.63;;;;;;;;;;5075702;28;20403;-82
2021/09/29 10:27:56;;;;;;;8.10;5.75;;;;;;;;;;5075654;28;20385;-82
2021/09/29 10:30:44;;;;;;;13.13;7.30;;;;;;;;;;5074938;28;20059;-82
2021/09/29 10:33:20;;;;;;;12.90;9.50;;;;;;;;;;5075379;28;20060;-82
2021/09/29 10:36:22;;;;;;;14.05;6.35;;;;;;;;;;5075396;28;20028;-83
2021/09/29 10:44:30;;;;;;;18.98;13.00;;;;;;;;;;5075533;28;20040;-82
2021/09/29 10:47:18;;;;;;;11.95;8.80;;;;;;;;;;5075434;28;20057;-83
2021/09/29 11:03:03;;;;;;;6.80;5.65;;;;;;;;;;5015859;28;20037;-83
2021/09/29 11:10:22;;;;;;;9.73;5.07;;;;;;;;;;5015306;28;20030;-82
2021/09/29 11:31:55;;;;;;;6.68;5.15;;;;;;;;;;5039472;28;20047;-82
2021/09/29 11:34:27;;;;;;;6.47;4.03;;;;;;;;;;5080692;28;20029;-82
2021/09/29 11:37:11;;;;;;;5.50;3.85;;;;;;;;;;5080585;28;20426;-82
2021/09/29 12:10:06;;;;;;;5.80;4.10;;;;;;;;;;5080070;28;20116;-82
2021/09/29 12:12:33;;;;;;;10.38;4.93;;;;;;;;;;5079537;28;20106;-82
2021/09/29 12:15:00;;;;;;;5.85;4.70;;;;;;;;;;5079660;28;20032;-82
2021/09/29 12:17:30;;;;;;;6.70;5.07;;;;;;;;;;5080020;28;20024;-82
2021/09/29 12:20:01;;;;;;;10.73;7.25;;;;;;;;;;5079589;28;20025;-82
2021/09/29 12:22:32;;;;;;;;;;;;;;;;;;5080137;28;20020;-82
2021/09/29 12:27:39;;;;;;;19.67;9.88;;;;;;;;;;5079533;28;20024;-82
2021/09/29 12:30:42;;;;;;;16.25;9.43;;;;;;;;;;5079171;28;20037;-81
2021/09/29 12:35:43;;;;;;;16.10;8.90;;;;;;;;;;5077123;28;20032;-82
2021/09/29 12:38:09;;;;;;;10.30;7.63;;;;;;;;;;5077514;28;20064;-82
2021/09/29 12:40:36;;;;;;;11.02;7.18;;;;;;;;;;5077492;28;20048;-82
2021/09/29 12:43:04;;;;;;;11.18;7.88;;;;;;;;;;5060722;28;20029;-82
2021/09/29 12:45:33;;;;;;;12.55;8.52;;;;;;;;;;5077427;28;20029;-82
2021/09/29 12:48:05;;;;;;;9.77;7.10;;;;;;;;;;5077611;28;20060;-81
2021/09/29 12:55:59;;;;;;;15.52;6.13;;;;;;;;;;5017499;28;20053;-82
2021/09/29 12:58:27;;;;;;;7.65;5.10;;;;;;;;;;5017342;28;20038;-82
2021/09/29 13:00:53;;;;;;;9.50;6.10;;;;;;;;;;5017359;28;20085;-81
2021/09/29 13:03:19;;;;;;;7.90;4.78;;;;;;;;;;5017456;28;20037;-81
2021/09/29 13:05:46;;;;;;;12.00;5.90;;;;;;;;;;5017126;28;20458;-81
2021/09/29 13:08:12;;;;;;;10.32;6.88;;;;;;;;;;5017034;28;20034;-81
2021/09/29 13:10:39;;;;;;;11.07;6.82;;;;;;;;;;5016965;28;20037;-81
2021/09/29 13:13:05;;;;;;;7.28;5.40;;;;;;;;;;5001023;28;20033;-81
2021/09/29 13:15:32;;;;;;;8.52;5.10;;;;;;;;;;5016830;28;20032;-81
2021/09/29 13:17:59;;;;;;;10.75;5.50;;;;;;;;;;5016958;28;20057;-81
2021/09/29 13:20:27;;;;;;;10.48;5.97;;;;;;;;;;5000373;28;20060;-82
2021/09/29 13:22:58;;;;;;;10.70;5.00;;;;;;;;;;5013685;28;20018;-82
2021/09/29 13:36:36;;;;;;;10.55;5.88;;;;;;;;;;5077721;28;20070;-81
2021/09/29 13:39:03;;;;;;;8.18;4.50;;;;;;;;;;5077874;28;20027;-81
2021/09/29 13:41:30;;;;;;;8.98;4.90;;;;;;;;;;5078102;28;20024;-81
2021/09/29 13:43:56;;;;;;;9.07;4.47;;;;;;;;;;5077760;28;20024;-82
2021/09/29 13:46:22;;;;;;;6.97;3.85;;;;;;;;;;5076458;28;20020;-82
2021/09/29 13:48:51;;;;;;;10.93;5.15;;;;;;;;;;5077438;28;20024;-82
2021/09/29 13:51:17;;;;;;;7.82;6.00;;;;;;;;;;5077444;28;20020;-82
2021/09/29 13:53:43;;;;;;;9.82;6.43;;;;;;;;;;5076970;28;20032;-82
2021/09/29 13:56:13;;;;;;;3.85;3.42;;;;;;;;;;5077775;28;20047;-81
2021/09/29 14:29:23;;;;;;;3.65;2.25;;;;;;;;;;4976407;28;20468;-81
2021/09/29 14:34:22;;;;;;;5.75;3.15;;;;;;;;;;4976772;28;20035;-81
2021/09/29 14:36:48;;;;;;;5.90;2.70;;;;;;;;;;4960445;28;20038;-81
2021/09/29 14:39:14;;;;;;;5.18;2.60;;;;;;;;;;4976627;28;20043;-81
2021/09/29 14:41:40;;;;;;;6.63;2.95;;;;;;;;;;4960300;28;20424;-82
2021/09/29 14:44:06;;;;;;;13.25;2.70;;;;;;;;;;5024470;28;20045;-82
2021/09/29 14:46:33;;;;;;;7.22;2.38;;;;;;;;;;5060809;28;20105;-81
2021/09/29 14:48:59;;;;;;;9.35;2.03;;;;;;;;;;5077094;28;20033;-82
2021/09/29 14:51:25;;;;;;;15.75;2.65;;;;;;;;;;5075837;28;20461;-82
2021/09/29 14:53:54;;;;;;;13.50;2.25;;;;;;;;;;5077031;28;20074;-82
2021/09/29 14:56:21;;;;;;;13.65;2.25;;;;;;;;;;5076790;28;20458;-81
2021/09/29 14:58:47;;;;;;;17.02;3.38;;;;;;;;;;5079740;28;20111;-82
2021/09/29 15:01:14;;;;;;;11.75;2.58;;;;;;;;;;5081273;28;20032;-82
2021/09/29 15:03:41;;;;;;;15.35;3.08;;;;;;;;;;5079892;28;20036;-81
2021/09/29 15:06:07;;;;;;;9.10;2.60;;;;;;;;;;5079966;28;20024;-82
2021/09/29 15:08:36;;;;;;;15.18;3.63;;;;;;;;;;5080909;28;20067;-82
2021/09/29 15:11:02;;;;;;;13.98;2.45;;;;;;;;;;5080554;28;20035;-82
2021/09/29 15:13:30;;;;;;;26.75;3.05;;;;;;;;;;5079541;28;20013;-82
2021/09/29 15:16:08;;;;;;;9.68;2.50;;;;;;;;;;5080885;28;20024;-82
2021/09/29 15:26:39;;;;;;;12.27;2.83;;;;;;;;;;5080770;28;20032;-82
2021/09/29 15:31:48;;;;;;;;;;;;;;;;;;;;;
2021/09/29 15:50:25;;;;;;;12.18;3.50;;;;;;;;;;5079951;28;20056;-80
2021/09/29 15:53:43;;;;;;;5.70;3.63;;;;;;;;;;5080003;28;20414;-80
2021/09/29 15:58:25;;;;;;;10.10;3.38;;;;;;;;;;5080157;28;20415;-79
2021/09/29 16:06:12;;;;;;;10.90;4.40;;;;;;;;;;5079757;28;20033;-80
2021/09/29 16:30:41;;;;;;;10.70;4.18;;;;;;;;;;5037534;28;20136;-83
2021/09/29 16:35:33;;;;;;;11.57;3.88;;;;;;;;;;5037893;28;20025;-84
2021/09/29 16:38:00;;;;;;;11.40;4.60;;;;;;;;;;5037456;28;20391;-83
2021/09/29 16:40:27;;;;;;;9.32;5.43;;;;;;;;;;5037576;28;20431;-83
2021/09/29 16:42:57;;;;;;;14.85;5.97;;;;;;;;;;5037571;28;20429;-83
2021/09/29 16:45:25;;;;;;;12.35;4.90;;;;;;;;;;5037381;28;20418;-83
2021/09/29 16:47:52;;;;;;;12.57;4.72;;;;;;;;;;5037327;28;20033;-82
2021/09/29 16:50:20;;;;;;;8.02;5.00;;;;;;;;;;5040712;28;20446;-82
2021/09/29 16:52:48;;;;;;;9.85;5.40;;;;;;;;;;5079226;28;20029;-82
2021/09/29 16:55:17;;;;;;;14.75;5.80;;;;;;;;;;5079149;28;20025;-82
2021/09/29 16:57:49;;;;;;;11.10;6.30;;;;;;;;;;5078877;28;20021;-82
2021/09/29 17:01:05;;;;;;;28.02;6.70;;;;;;;;;;5078757;28;20410;-82
2021/09/29 17:03:06;;;;;;;14.30;6.78;;;;;;;;;;5073109;28;20058;-82
2021/09/29 17:05:32;;;;;;;13.00;7.72;;;;;;;;;;5078626;28;20035;-82
2021/09/29 17:07:58;;;;;;;13.43;6.63;;;;;;;;;;5077628;28;20024;-82
2021/09/29 17:10:25;;;;;;;14.20;6.63;;;;;;;;;;5078609;28;20063;-81
2021/09/29 17:12:52;;;;;;;19.75;6.20;;;;;;;;;;5077492;28;20410;-82
2021/09/29 17:15:18;;;;;;;13.82;5.78;;;;;;;;;;5078201;28;20115;-81
2021/09/29 17:17:44;;;;;;;12.07;6.18;;;;;;;;;;5075541;28;20025;-82
2021/09/29 17:20:11;;;;;;;10.98;6.10;;;;;;;;;;5076987;28;20032;-82
2021/09/29 17:22:38;;;;;;;11.85;6.32;;;;;;;;;;5077274;28;20037;-83
2021/09/29 17:25:05;;;;;;;13.55;6.95;;;;;;;;;;5078710;28;20052;-82
2021/09/29 17:27:31;;;;;;;12.45;8.05;;;;;;;;;;5078228;28;20017;-82
2021/09/29 17:29:59;;;;;;;13.23;7.60;;;;;;;;;;5076760;28;20052;-82
2021/09/29 17:32:33;;;;;;;17.27;8.73;;;;;;;;;;5078043;28;20059;-82
2021/09/29 17:35:06;;;;;;;21.63;10.60;;;;;;;;;;5076365;28;20104;-82
2021/09/29 17:37:51;;;;;;;17.23;10.38;;;;;;;;;;5077949;28;20094;-83
2021/09/29 17:53:41;;;;;;;12.52;7.28;;;;;;;;;;5077525;28;20035;-82
2021/09/29 17:56:07;;;;;;;17.42;9.25;;;;;;;;;;5076611;28;20029;-83
2021/09/29 17:58:33;;;;;;;14.13;9.30;;;;;;;;;;5077575;28;20021;-83
2021/09/29 18:01:01;;;;;;;11.13;7.55;;;;;;;;;;5077377;28;20032;-82
2021/09/29 18:03:54;;;;;;;15.32;7.75;;;;;;;;;;5077305;28;20032;-83
2021/09/29 18:09:05;;;;;;;12.77;8.93;;;;;;;;;;5077499;28;20062;-82
2021/09/29 18:11:32;;;;;;;11.48;7.03;;;;;;;;;;5076924;28;20055;-82
2021/09/29 18:13:58;;;;;;;10.75;7.00;;;;;;;;;;5076951;28;20021;-82
2021/09/29 18:16:25;;;;;;;11.13;7.47;;;;;;;;;;5077097;28;20034;-82
2021/09/29 18:18:51;;;;;;;16.92;9.07;;;;;;;;;;5077276;28;20016;-82
2021/09/29 18:21:17;;;;;;;11.57;7.00;;;;;;;;;;5077082;28;20028;-82
2021/09/29 18:23:44;;;;;;;17.77;6.43;;;;;;;;;;5076623;28;20111;-82
2021/09/29 18:26:10;;;;;;;16.92;8.20;;;;;;;;;;5075520;28;20039;-82
2021/09/29 18:28:41;;;;;;;15.75;8.73;;;;;;;;;;5076037;28;20036;-81
2021/09/29 18:31:07;;;;;;;13.30;9.35;;;;;;;;;;5077345;28;20115;-85
2021/09/29 18:33:35;;;;;;;22.10;11.15;;;;;;;;;;5075549;28;20020;-86
2021/09/29 18:36:06;;;;;;;16.30;7.35;;;;;;;;;;5077355;28;20048;-88
2021/09/29 18:38:34;;;;;;;19.98;11.60;;;;;;;;;;5076313;28;20036;-86